createdAt,value
2017-08-31T00:01:20.280Z,5.80
2017-08-31T00:03:50.096Z,5.77
2017-08-31T00:06:19.433Z,6.77
2017-08-31T00:08:49.018Z,6.20
2017-08-31T00:11:19.108Z,7.10
2017-08-31T00:13:48.083Z,6.73
2017-08-31T00:16:18.352Z,6.30
2017-08-31T00:18:48.277Z,5.67
2017-08-31T00:21:17.933Z,6.43
2017-08-31T00:23:47.277Z,6.80
2017-08-31T00:26:17.304Z,8.40
2017-08-31T00:28:46.857Z,7.50
2017-08-31T00:31:16.215Z,6.43
2017-08-31T00:33:45.540Z,7.40
2017-08-31T00:36:14.860Z,9.70
2017-08-31T00:38:44.292Z,7.30
2017-08-31T00:41:14.195Z,6.90
2017-08-31T00:43:44.021Z,8.20
2017-08-31T00:46:13.685Z,9.70
2017-08-31T00:48:43.183Z,8.37
2017-08-31T00:51:12.624Z,7.43
2017-08-31T00:53:42.496Z,8.10
2017-08-31T00:56:13.528Z,8.37
2017-08-31T00:58:44.483Z,9.37
2017-08-31T01:01:16.787Z,7.40
2017-08-31T01:03:47.476Z,8.93
2017-08-31T01:06:18.424Z,8.17
2017-08-31T01:08:47.784Z,8.83
2017-08-31T01:11:17.209Z,11.67
2017-08-31T01:13:46.551Z,11.17
2017-08-31T01:16:15.978Z,8.83
2017-08-31T01:18:45.763Z,8.33
2017-08-31T01:21:16.507Z,8.53
2017-08-31T01:23:46.130Z,8.10
2017-08-31T01:26:15.752Z,7.00
2017-08-31T01:28:45.105Z,7.23
2017-08-31T01:31:14.778Z,7.10
2017-08-31T01:33:44.653Z,9.03
2017-08-31T01:36:14.123Z,5.83
2017-08-31T01:38:43.804Z,5.90
2017-08-31T01:41:16.247Z,6.80
2017-08-31T01:43:45.586Z,6.27
2017-08-31T01:46:14.984Z,6.50
2017-08-31T01:48:44.301Z,6.40
2017-08-31T01:51:13.804Z,6.60
2017-08-31T01:53:44.133Z,6.50
2017-08-31T01:56:13.593Z,6.83
2017-08-31T01:58:42.878Z,6.33
2017-08-31T02:01:12.688Z,6.13
2017-08-31T02:03:42.172Z,6.47
2017-08-31T02:06:11.625Z,6.40
2017-08-31T02:08:47.713Z,6.40
2017-08-31T02:11:17.081Z,7.00
2017-08-31T02:13:46.535Z,6.80
2017-08-31T02:16:16.222Z,7.03
2017-08-31T02:18:45.556Z,7.00
2017-08-31T02:21:14.951Z,6.27
2017-08-31T02:23:44.625Z,7.13
2017-08-31T02:26:14.022Z,7.20
2017-08-31T02:28:43.431Z,6.97
2017-08-31T02:31:12.956Z,6.87
2017-08-31T02:33:42.318Z,6.60
2017-08-31T02:36:11.737Z,6.60
2017-08-31T02:38:41.049Z,7.80
2017-08-31T02:41:10.561Z,7.37
2017-08-31T02:43:40.007Z,7.13
2017-08-31T02:46:09.360Z,7.20
2017-08-31T02:48:38.673Z,6.77
2017-08-31T02:51:08.180Z,6.67
2017-08-31T02:53:37.486Z,7.53
2017-08-31T02:56:06.934Z,6.70
2017-08-31T02:58:36.275Z,6.60
2017-08-31T03:01:05.897Z,7.10
2017-08-31T03:03:35.243Z,7.13
2017-08-31T03:06:04.791Z,7.13
2017-08-31T03:08:34.118Z,8.47
2017-08-31T03:11:10.469Z,7.50
2017-08-31T03:13:39.767Z,6.90
2017-08-31T03:16:09.213Z,7.27
2017-08-31T03:18:38.850Z,7.87
2017-08-31T03:21:08.227Z,8.00
2017-08-31T03:23:37.605Z,7.00
2017-08-31T03:26:06.916Z,8.20
2017-08-31T03:28:36.546Z,7.50
2017-08-31T03:31:06.104Z,7.07
2017-08-31T03:33:35.475Z,7.10
2017-08-31T03:36:04.951Z,8.40
2017-08-31T03:38:34.324Z,7.13
2017-08-31T03:41:03.636Z,7.47
2017-08-31T03:43:32.958Z,7.77
2017-08-31T03:46:02.321Z,7.43
2017-08-31T03:48:31.692Z,8.07
2017-08-31T03:51:01.027Z,8.80
2017-08-31T03:53:30.352Z,7.90
2017-08-31T03:55:59.678Z,8.27
2017-08-31T03:58:29.228Z,8.80
2017-08-31T04:00:58.676Z,9.17
2017-08-31T04:03:28.201Z,7.50
2017-08-31T04:05:57.538Z,8.43
2017-08-31T04:08:26.955Z,7.60
2017-08-31T04:10:59.280Z,8.93
2017-08-31T04:13:28.626Z,9.40
2017-08-31T04:15:58.286Z,9.10
2017-08-31T04:18:27.571Z,8.07
2017-08-31T04:20:57.256Z,8.50
2017-08-31T04:23:26.565Z,9.67
2017-08-31T04:25:55.872Z,8.60
2017-08-31T04:28:25.201Z,9.33
2017-08-31T04:30:54.921Z,8.60
2017-08-31T04:33:24.227Z,9.33
2017-08-31T04:35:53.618Z,9.77
2017-08-31T04:38:22.913Z,8.30
2017-08-31T04:40:52.239Z,8.47
2017-08-31T04:43:21.528Z,8.20
2017-08-31T04:45:50.879Z,7.97
2017-08-31T04:48:20.379Z,8.37
2017-08-31T04:50:49.742Z,8.87
2017-08-31T04:53:19.172Z,9.10
2017-08-31T04:55:48.836Z,9.83
2017-08-31T04:58:18.828Z,8.73
2017-08-31T05:00:48.194Z,8.90
2017-08-31T05:03:17.531Z,9.17
2017-08-31T05:05:47.336Z,9.37
2017-08-31T05:08:16.797Z,9.63
2017-08-31T05:10:46.190Z,10.27
2017-08-31T05:13:15.525Z,9.93
2017-08-31T05:15:44.916Z,8.77
2017-08-31T05:18:14.253Z,9.33
2017-08-31T05:20:43.621Z,9.60
2017-08-31T05:23:13.024Z,9.80
2017-08-31T05:25:42.609Z,10.37
2017-08-31T05:28:11.968Z,9.33
2017-08-31T05:30:41.608Z,10.90
2017-08-31T05:33:12.348Z,11.73
2017-08-31T05:35:47.029Z,10.00
2017-08-31T05:38:16.937Z,10.00
2017-08-31T05:40:46.349Z,9.90
2017-08-31T05:43:15.754Z,9.80
2017-08-31T05:45:46.124Z,10.53
2017-08-31T05:48:15.844Z,13.30
2017-08-31T05:50:45.166Z,10.37
2017-08-31T05:53:14.772Z,9.13
2017-08-31T05:55:44.607Z,9.33
2017-08-31T05:58:14.118Z,8.60
2017-08-31T06:00:43.470Z,9.60
2017-08-31T06:03:13.016Z,10.20
2017-08-31T06:05:42.414Z,10.20
2017-08-31T06:08:13.057Z,10.50
2017-08-31T06:10:44.233Z,9.30
2017-08-31T06:13:13.977Z,8.67
2017-08-31T06:15:43.524Z,8.40
2017-08-31T06:18:12.825Z,8.47
2017-08-31T06:20:42.311Z,8.47
2017-08-31T06:23:11.892Z,7.80
2017-08-31T06:25:41.215Z,7.53
2017-08-31T06:28:11.064Z,8.60
2017-08-31T06:30:40.457Z,7.83
2017-08-31T06:33:09.861Z,7.70
2017-08-31T06:35:39.276Z,8.23
2017-08-31T06:38:08.639Z,9.30
2017-08-31T06:40:38.269Z,8.27
2017-08-31T06:43:07.660Z,7.50
2017-08-31T06:45:37.161Z,8.03
2017-08-31T06:48:06.907Z,8.30
2017-08-31T06:50:36.345Z,7.23
2017-08-31T06:53:05.699Z,8.90
2017-08-31T06:55:35.057Z,8.83
2017-08-31T06:58:04.341Z,8.53
2017-08-31T07:00:33.873Z,8.27
2017-08-31T07:03:03.368Z,8.00
2017-08-31T07:05:32.739Z,8.57
2017-08-31T07:08:02.124Z,9.13
2017-08-31T07:10:31.718Z,9.50
2017-08-31T07:13:01.155Z,8.67
2017-08-31T07:15:30.562Z,10.50
2017-08-31T07:18:00.027Z,9.27
2017-08-31T07:20:29.452Z,8.90
2017-08-31T07:22:58.919Z,8.63
2017-08-31T07:25:28.288Z,9.70
2017-08-31T07:27:57.746Z,9.33
2017-08-31T07:30:27.384Z,7.83
2017-08-31T07:32:57.387Z,8.40
2017-08-31T07:35:27.260Z,7.93
2017-08-31T07:37:56.641Z,8.67
2017-08-31T07:40:25.956Z,9.43
2017-08-31T07:42:55.272Z,9.67
2017-08-31T07:45:24.664Z,8.63
2017-08-31T07:47:53.990Z,8.00
2017-08-31T07:50:23.343Z,7.60
2017-08-31T07:52:52.668Z,7.80
2017-08-31T07:55:22.091Z,7.57
2017-08-31T07:57:51.416Z,9.57
2017-08-31T08:00:20.765Z,8.47
2017-08-31T08:02:50.121Z,8.30
2017-08-31T08:05:19.818Z,7.63
2017-08-31T08:07:49.514Z,7.17
2017-08-31T08:10:18.929Z,7.53
2017-08-31T08:12:48.319Z,8.00
2017-08-31T08:15:17.664Z,9.10
2017-08-31T08:17:47.243Z,7.70
2017-08-31T08:20:16.676Z,9.40
2017-08-31T08:22:45.992Z,7.73
2017-08-31T08:25:15.357Z,7.60
2017-08-31T08:27:44.739Z,8.77
2017-08-31T08:30:14.192Z,9.30
2017-08-31T08:32:43.544Z,7.20
2017-08-31T08:35:12.984Z,8.50
2017-08-31T08:37:42.305Z,6.43
2017-08-31T08:40:11.762Z,8.40
2017-08-31T08:42:41.131Z,9.00
2017-08-31T08:45:10.665Z,8.03
2017-08-31T08:47:40.196Z,8.20
2017-08-31T08:50:10.301Z,8.00
2017-08-31T08:52:39.620Z,8.70
2017-08-31T08:55:09.324Z,8.23
2017-08-31T08:57:38.864Z,7.93
2017-08-31T09:00:08.270Z,8.33
2017-08-31T09:02:37.689Z,9.03
2017-08-31T09:05:09.365Z,6.90
2017-08-31T09:07:38.993Z,7.90
2017-08-31T09:10:10.317Z,7.70
2017-08-31T09:12:40.489Z,7.87
2017-08-31T09:15:10.708Z,7.20
2017-08-31T09:17:40.554Z,6.83
2017-08-31T09:20:11.170Z,7.57
2017-08-31T09:22:40.697Z,6.90
2017-08-31T09:25:11.916Z,7.33
2017-08-31T09:27:41.640Z,7.20
2017-08-31T09:30:11.960Z,7.60
2017-08-31T09:32:41.348Z,8.97
2017-08-31T09:35:10.689Z,7.63
2017-08-31T09:37:40.064Z,8.23
2017-08-31T09:40:09.420Z,6.60
2017-08-31T09:42:38.872Z,7.50
2017-08-31T09:45:08.521Z,8.67
2017-08-31T09:47:37.845Z,8.43
2017-08-31T09:50:07.219Z,7.10
2017-08-31T09:52:36.586Z,7.77
2017-08-31T09:55:06.045Z,7.57
2017-08-31T09:57:40.298Z,8.10
2017-08-31T10:00:11.873Z,7.03
2017-08-31T10:02:42.520Z,7.10
2017-08-31T10:05:12.068Z,6.23
2017-08-31T10:07:42.176Z,8.33
2017-08-31T10:10:12.102Z,7.10
2017-08-31T10:12:45.035Z,7.60
2017-08-31T10:15:15.671Z,6.37
2017-08-31T10:17:45.177Z,5.87
2017-08-31T10:20:14.616Z,6.63
2017-08-31T10:22:43.920Z,7.20
2017-08-31T10:25:13.381Z,6.10
2017-08-31T10:27:43.792Z,6.20
2017-08-31T10:30:13.613Z,4.83
2017-08-31T10:32:42.984Z,5.97
2017-08-31T10:35:12.419Z,5.57
2017-08-31T10:37:42.426Z,3.97
2017-08-31T10:40:11.948Z,4.90
2017-08-31T10:42:41.260Z,5.00
2017-08-31T10:45:10.650Z,4.00
2017-08-31T10:47:41.165Z,4.57
2017-08-31T10:50:10.701Z,4.67
2017-08-31T10:52:40.066Z,4.40
2017-08-31T10:55:09.680Z,5.13
2017-08-31T10:57:38.991Z,4.23
2017-08-31T11:00:09.346Z,4.17
2017-08-31T11:02:40.224Z,4.47
2017-08-31T11:05:11.352Z,3.97
2017-08-31T11:07:40.872Z,4.27
2017-08-31T11:10:12.112Z,3.83
2017-08-31T11:12:46.443Z,4.23
2017-08-31T11:15:17.369Z,3.90
2017-08-31T11:17:49.223Z,3.80
2017-08-31T11:20:20.356Z,4.70
2017-08-31T11:22:49.909Z,4.30
2017-08-31T11:25:19.540Z,4.40
2017-08-31T11:27:48.933Z,4.13
2017-08-31T11:30:18.402Z,4.10
2017-08-31T11:32:49.077Z,3.80
2017-08-31T11:35:18.831Z,3.87
2017-08-31T11:37:48.684Z,3.60
2017-08-31T11:40:18.198Z,4.00
2017-08-31T11:42:47.500Z,4.00
2017-08-31T11:45:18.321Z,4.57
2017-08-31T11:47:48.170Z,4.10
2017-08-31T11:50:17.518Z,3.97
2017-08-31T11:52:46.818Z,4.00
2017-08-31T11:55:16.360Z,4.30
2017-08-31T11:57:48.778Z,4.03
2017-08-31T12:00:18.973Z,6.27
2017-08-31T12:02:53.248Z,4.10
2017-08-31T12:05:22.722Z,3.80
2017-08-31T12:07:52.200Z,4.30
2017-08-31T12:10:22.026Z,3.40
2017-08-31T12:12:52.203Z,3.53
2017-08-31T12:15:21.830Z,3.40
2017-08-31T12:17:51.258Z,3.57
2017-08-31T12:20:20.749Z,3.60
2017-08-31T12:22:50.141Z,3.40
2017-08-31T12:25:19.731Z,3.13
2017-08-31T12:27:49.152Z,3.37
2017-08-31T12:30:18.586Z,2.87
2017-08-31T12:32:48.128Z,3.80
2017-08-31T12:35:17.495Z,2.73
2017-08-31T12:37:46.935Z,3.30
2017-08-31T12:40:16.279Z,3.10
2017-08-31T12:42:45.639Z,2.90
2017-08-31T12:45:15.226Z,3.23
2017-08-31T12:47:45.080Z,4.53
2017-08-31T12:50:15.365Z,8.07
2017-08-31T12:52:59.712Z,7.83
2017-08-31T12:55:29.177Z,9.07
2017-08-31T12:57:58.583Z,8.23
2017-08-31T13:00:28.257Z,8.60
2017-08-31T13:02:57.571Z,8.47
2017-08-31T13:05:27.524Z,9.70
2017-08-31T13:07:57.078Z,10.50
2017-08-31T13:10:26.530Z,13.43
2017-08-31T13:12:55.974Z,11.13
2017-08-31T13:15:25.395Z,16.90
2017-08-31T13:17:54.736Z,14.17
2017-08-31T13:20:24.182Z,19.40
2017-08-31T13:22:53.633Z,18.30
2017-08-31T13:25:23.181Z,19.63
2017-08-31T13:27:52.533Z,14.97
2017-08-31T13:30:21.986Z,17.57
2017-08-31T13:32:51.334Z,17.13
2017-08-31T13:35:20.741Z,13.77
2017-08-31T13:37:50.156Z,14.10
2017-08-31T13:40:19.893Z,18.30
2017-08-31T13:42:49.357Z,13.57
2017-08-31T13:45:18.773Z,15.83
2017-08-31T13:47:48.087Z,12.37
2017-08-31T13:50:17.755Z,14.30
2017-08-31T13:52:48.752Z,13.67
2017-08-31T13:55:18.493Z,14.00
2017-08-31T13:57:47.948Z,13.20
2017-08-31T14:00:17.336Z,14.67
2017-08-31T14:02:46.620Z,12.30
2017-08-31T14:05:15.976Z,12.47
2017-08-31T14:07:45.293Z,11.43
2017-08-31T14:10:14.921Z,10.67
2017-08-31T14:12:45.292Z,12.50
2017-08-31T14:15:14.892Z,7.17
2017-08-31T14:17:44.201Z,7.90
2017-08-31T14:20:14.121Z,5.83
2017-08-31T14:22:43.628Z,5.37
2017-08-31T14:25:12.995Z,4.47
2017-08-31T14:27:42.299Z,3.40
2017-08-31T14:30:11.680Z,4.00
2017-08-31T14:32:41.034Z,3.70
2017-08-31T14:35:10.556Z,3.80
2017-08-31T14:37:39.857Z,4.00
2017-08-31T14:40:09.205Z,3.70
2017-08-31T14:42:38.514Z,3.30
2017-08-31T14:45:07.879Z,3.17
2017-08-31T14:47:39.393Z,3.40
2017-08-31T14:50:08.788Z,3.60
2017-08-31T14:52:38.083Z,2.77
2017-08-31T14:55:07.481Z,4.23
2017-08-31T14:57:37.003Z,3.70
2017-08-31T15:00:06.382Z,3.33
2017-08-31T15:02:36.176Z,3.60
2017-08-31T15:05:05.844Z,3.60
2017-08-31T15:07:35.161Z,3.10
2017-08-31T15:10:04.643Z,3.40
2017-08-31T15:12:34.110Z,3.60
2017-08-31T15:15:03.656Z,4.30
2017-08-31T15:17:33.027Z,2.90
2017-08-31T15:20:02.378Z,3.30
2017-08-31T15:22:31.754Z,3.33
2017-08-31T15:25:01.269Z,3.80
2017-08-31T15:27:30.624Z,3.77
2017-08-31T15:30:00.077Z,3.80
2017-08-31T15:32:30.119Z,3.37
2017-08-31T15:35:00.751Z,4.40
2017-08-31T15:37:33.344Z,3.53
2017-08-31T15:40:02.910Z,4.80
2017-08-31T15:42:32.468Z,3.23
2017-08-31T15:45:01.953Z,3.53
2017-08-31T15:47:31.383Z,3.47
2017-08-31T15:50:03.329Z,3.07
2017-08-31T15:52:40.204Z,3.00
2017-08-31T15:55:10.172Z,2.90
2017-08-31T15:57:39.701Z,2.63
2017-08-31T16:00:18.676Z,3.63
2017-08-31T16:02:52.109Z,3.40
2017-08-31T16:05:21.732Z,3.00
2017-08-31T16:07:51.241Z,3.17
2017-08-31T16:13:04.756Z,3.00
2017-08-31T16:15:34.202Z,3.00
2017-08-31T16:18:03.657Z,2.57
2017-08-31T16:20:33.317Z,3.17
2017-08-31T16:23:02.793Z,3.20
2017-08-31T16:25:32.293Z,2.70
2017-08-31T16:28:01.672Z,2.63
2017-08-31T16:30:31.267Z,2.80
2017-08-31T16:33:00.789Z,2.93
2017-08-31T16:35:30.136Z,2.70
2017-08-31T16:37:59.813Z,2.70
2017-08-31T16:40:29.160Z,2.50
2017-08-31T16:42:58.592Z,2.80
2017-08-31T16:45:28.029Z,2.80
2017-08-31T16:47:57.405Z,2.90
2017-08-31T16:50:27.063Z,2.40
2017-08-31T16:52:56.536Z,2.50
2017-08-31T16:55:26.147Z,2.87
2017-08-31T16:57:55.529Z,2.20
2017-08-31T17:00:24.868Z,2.50
2017-08-31T17:02:54.174Z,2.80
2017-08-31T17:05:23.569Z,2.40
2017-08-31T17:07:52.852Z,2.27
2017-08-31T17:10:22.228Z,2.37
2017-08-31T17:12:51.866Z,2.77
2017-08-31T17:15:21.369Z,2.20
2017-08-31T17:17:50.756Z,2.37
2017-08-31T17:20:20.076Z,2.40
2017-08-31T17:22:49.362Z,2.20
2017-08-31T17:25:19.016Z,2.10
2017-08-31T17:27:48.367Z,2.40
2017-08-31T17:30:19.240Z,2.07
2017-08-31T17:32:48.687Z,2.03
2017-08-31T17:35:18.144Z,2.00
2017-08-31T17:37:48.040Z,1.90
2017-08-31T17:40:17.461Z,2.00
2017-08-31T17:42:46.782Z,1.90
2017-08-31T17:45:16.410Z,2.00
2017-08-31T17:47:45.735Z,1.57
2017-08-31T17:50:15.283Z,2.13
2017-08-31T17:52:44.588Z,1.53
2017-08-31T17:55:16.000Z,1.80
2017-08-31T17:57:45.340Z,1.93
2017-08-31T18:00:15.038Z,1.97
2017-08-31T18:02:45.724Z,1.97
2017-08-31T18:05:15.133Z,1.73
2017-08-31T18:07:44.667Z,1.73
2017-08-31T18:10:14.016Z,1.93
2017-08-31T18:12:43.458Z,1.83
2017-08-31T18:15:12.956Z,1.80
2017-08-31T18:17:42.282Z,2.13
2017-08-31T18:20:11.773Z,1.77
2017-08-31T18:22:41.052Z,2.10
2017-08-31T18:25:11.203Z,2.00
2017-08-31T18:27:52.862Z,1.80
2017-08-31T18:30:27.413Z,1.60
2017-08-31T18:32:56.770Z,2.13
2017-08-31T18:35:26.102Z,3.13
2017-08-31T18:37:55.690Z,2.23
2017-08-31T18:40:25.115Z,2.07
2017-08-31T18:42:54.440Z,2.10
2017-08-31T18:45:23.896Z,2.37
2017-08-31T18:47:53.196Z,2.17
2017-08-31T18:50:22.537Z,1.87
2017-08-31T18:52:51.855Z,2.50
2017-08-31T18:55:21.449Z,2.33
2017-08-31T18:57:50.720Z,2.10
2017-08-31T19:00:20.246Z,2.07
2017-08-31T19:02:49.637Z,2.20
2017-08-31T19:05:19.039Z,2.60
2017-08-31T19:07:48.570Z,2.30
2017-08-31T19:10:17.884Z,2.30
2017-08-31T19:12:47.330Z,1.73
2017-08-31T19:15:16.840Z,2.60
2017-08-31T19:17:46.688Z,2.17
2017-08-31T19:20:16.109Z,2.70
2017-08-31T19:22:45.480Z,2.00
2017-08-31T19:25:14.809Z,2.30
2017-08-31T19:27:44.076Z,2.00
2017-08-31T19:30:13.873Z,2.03
2017-08-31T19:32:43.268Z,2.30
2017-08-31T19:35:12.685Z,1.97
2017-08-31T19:37:48.575Z,2.50
2017-08-31T19:40:18.312Z,2.43
2017-08-31T19:42:47.791Z,2.43
2017-08-31T19:45:17.242Z,3.07
2017-08-31T19:47:46.537Z,2.20
2017-08-31T19:50:15.896Z,2.03
2017-08-31T19:52:45.356Z,1.97
2017-08-31T19:55:15.408Z,2.30
2017-08-31T19:57:45.018Z,2.00
2017-08-31T20:00:15.393Z,2.30
2017-08-31T20:02:44.806Z,2.20
2017-08-31T20:05:14.268Z,2.47
2017-08-31T20:07:43.619Z,1.83
2017-08-31T20:10:14.087Z,2.60
2017-08-31T20:12:43.398Z,2.33
2017-08-31T20:15:12.965Z,2.60
2017-08-31T20:17:42.395Z,2.40
2017-08-31T20:20:11.937Z,1.87
2017-08-31T20:22:41.467Z,2.43
2017-08-31T20:25:10.837Z,2.40
2017-08-31T20:27:40.344Z,2.90
2017-08-31T20:30:09.999Z,2.27
2017-08-31T20:32:39.501Z,2.67
2017-08-31T20:35:08.954Z,2.60
2017-08-31T20:37:38.609Z,2.47
2017-08-31T20:40:08.341Z,2.53
2017-08-31T20:42:37.669Z,2.20
2017-08-31T20:45:07.031Z,2.67
2017-08-31T20:47:36.353Z,2.70
2017-08-31T20:50:05.932Z,2.80
2017-08-31T20:52:35.283Z,2.57
2017-08-31T20:55:05.901Z,2.23
2017-08-31T20:57:35.200Z,2.20
2017-08-31T21:00:04.711Z,2.47
2017-08-31T21:02:34.066Z,2.27
2017-08-31T21:05:03.553Z,2.93
2017-08-31T21:07:32.904Z,2.50
2017-08-31T21:10:02.253Z,2.43
2017-08-31T21:12:31.800Z,2.80
2017-08-31T21:15:01.639Z,2.20
2017-08-31T21:17:31.185Z,1.83
2017-08-31T21:20:00.856Z,2.47
2017-08-31T21:22:30.404Z,3.27
2017-08-31T21:24:59.688Z,2.47
2017-08-31T21:27:29.046Z,2.30
2017-08-31T21:29:58.558Z,2.40
2017-08-31T21:32:28.240Z,2.63
2017-08-31T21:34:58.051Z,2.20
2017-08-31T21:37:27.652Z,2.40
2017-08-31T21:39:57.028Z,2.27
2017-08-31T21:42:26.380Z,2.63
2017-08-31T21:44:55.717Z,2.43
2017-08-31T21:47:25.016Z,2.37
2017-08-31T21:49:54.294Z,2.53
2017-08-31T21:52:23.656Z,2.57
2017-08-31T21:54:53.156Z,2.47
2017-08-31T21:57:22.600Z,2.70
2017-08-31T21:59:52.086Z,2.60
2017-08-31T22:02:21.417Z,2.50
2017-08-31T22:04:50.778Z,3.00
2017-08-31T22:07:20.169Z,2.83
2017-08-31T22:09:50.269Z,2.10
2017-08-31T22:12:19.621Z,2.27
2017-08-31T22:14:48.906Z,2.70
2017-08-31T22:17:18.356Z,2.30
2017-08-31T22:19:47.923Z,2.00
2017-08-31T22:22:17.480Z,2.23
2017-08-31T22:24:46.993Z,2.73
2017-08-31T22:27:16.509Z,2.43
2017-08-31T22:29:45.787Z,2.37
2017-08-31T22:32:15.277Z,3.30
2017-08-31T22:34:44.581Z,2.10
2017-08-31T22:37:13.912Z,2.83
2017-08-31T22:39:43.200Z,2.63
2017-08-31T22:42:12.584Z,2.40
2017-08-31T22:44:41.992Z,2.63
2017-08-31T22:47:11.352Z,2.43
2017-08-31T22:49:40.661Z,2.70
2017-08-31T22:52:10.164Z,2.40
2017-08-31T22:54:49.200Z,1.93
2017-08-31T22:57:27.700Z,2.67
2017-08-31T22:59:57.078Z,2.50
2017-08-31T23:02:26.400Z,2.87
2017-08-31T23:04:55.909Z,2.50
2017-08-31T23:07:25.291Z,2.60
2017-08-31T23:09:54.714Z,3.00
2017-08-31T23:12:24.197Z,2.97
2017-08-31T23:14:53.590Z,2.80
2017-08-31T23:17:22.897Z,3.53
2017-08-31T23:19:52.184Z,3.90
2017-08-31T23:22:21.505Z,3.20
2017-08-31T23:24:50.965Z,3.37
2017-08-31T23:27:20.682Z,3.80
2017-08-31T23:29:50.174Z,3.93
2017-08-31T23:32:19.484Z,3.80
2017-08-31T23:34:48.932Z,4.37
2017-08-31T23:37:18.327Z,4.90
2017-08-31T23:39:48.198Z,4.90
2017-08-31T23:42:17.823Z,6.40
2017-08-31T23:44:47.532Z,5.63
2017-08-31T23:47:16.980Z,5.60
2017-08-31T23:49:46.247Z,5.10
2017-08-31T23:52:16.212Z,4.90
2017-08-31T23:54:45.507Z,6.00
2017-08-31T23:57:15.093Z,5.23
2017-08-31T23:59:44.666Z,5.60
